Arkansas Post National Memor, Arkansas
Current Conditions -  °F | °C
As of 2:53 PM on Friday 31 Oct 2014 (Local Time) from KPBF Reporting Station
Broken Clouds Broken Clouds  
Wind Chill: 63°   Ceiling: 5000
Heat Index: 63°   Visibility: 10mi
Dew Point: 41°   Wind: 12mph
Humidity: 45%   Direction: 340°NNW
Pressure: 30.18"   Gusts: 21mph
Location:  34.1564°N, 91.3915°W
Report Text: KPBF 311953Z AUTO 34010G18KT 10SM BKN050 17/05 A3018 RMK AO2 SLP219 T01720050
Loading
Personal Weather Stations






























Interactive Weather Map
Tropical Storm Tracking
New forecast layout! Learn more

10-Day Weather Forecast

Advertisements
Track Severe Weather on mobile